Time;durP1;ratioP1;P1;durP2;ratioP2;P2;SDS_P1;SDS_P2;PMS_P1;PMS_P2;Temp;Humidity;BMP_temperature;BMP_pressure;BME280_temperature;BME280_humidity;BME280_pressure;Samples;Min_cycle;Max_cycle;Signal;HPM_P1;HPM_P2
2021/11/23 00:01:05;;;;;;;43.25;30.02;;;;;;;;;;5027772;28;20038;-74
2021/11/23 00:03:31;;;;;;;41.90;31.30;;;;;;;;;;5037037;28;20176;-74
2021/11/23 00:05:57;;;;;;;40.83;30.67;;;;;;;;;;5044731;28;20847;-74
2021/11/23 00:08:23;;;;;;;41.45;27.58;;;;;;;;;;5039687;28;20033;-75
2021/11/23 00:10:49;;;;;;;38.35;28.23;;;;;;;;;;5040462;28;20708;-74
2021/11/23 00:13:16;;;;;;;40.47;28.60;;;;;;;;;;5031845;28;20232;-75
2021/11/23 00:15:42;;;;;;;34.65;25.27;;;;;;;;;;5040450;28;20037;-74
2021/11/23 00:18:09;;;;;;;37.78;25.55;;;;;;;;;;5035587;28;20025;-74
2021/11/23 00:20:36;;;;;;;31.92;23.17;;;;;;;;;;5033178;28;20040;-75
2021/11/23 00:23:03;;;;;;;38.50;25.25;;;;;;;;;;5052874;28;20104;-74
2021/11/23 00:25:30;;;;;;;30.52;21.35;;;;;;;;;;5048311;28;20037;-74
2021/11/23 00:27:56;;;;;;;28.52;20.60;;;;;;;;;;5050526;28;20032;-75
2021/11/23 00:30:26;;;;;;;29.45;21.45;;;;;;;;;;5048414;28;20041;-74
2021/11/23 00:32:55;;;;;;;28.75;21.83;;;;;;;;;;5039118;28;20032;-74
2021/11/23 00:35:21;;;;;;;29.45;22.35;;;;;;;;;;5039872;28;20070;-74
2021/11/23 00:37:50;;;;;;;32.25;23.05;;;;;;;;;;5033056;28;20029;-74
2021/11/23 00:40:16;;;;;;;32.58;24.30;;;;;;;;;;5047471;28;20040;-75
2021/11/23 00:42:42;;;;;;;35.47;24.90;;;;;;;;;;5048003;28;20040;-74
2021/11/23 00:45:10;;;;;;;33.67;25.05;;;;;;;;;;5047550;28;20033;-74
2021/11/23 00:47:36;;;;;;;42.78;31.50;;;;;;;;;;5048154;28;20053;-75
2021/11/23 00:50:02;;;;;;;53.05;35.35;;;;;;;;;;5033114;28;20038;-74
2021/11/23 00:52:28;;;;;;;59.25;41.20;;;;;;;;;;5028047;28;20378;-74
2021/11/23 00:54:54;;;;;;;61.15;40.72;;;;;;;;;;5040355;28;20040;-74
2021/11/23 00:57:20;;;;;;;56.70;39.92;;;;;;;;;;5048382;28;20053;-74
2021/11/23 00:59:46;;;;;;;52.25;38.70;;;;;;;;;;5001966;28;1295829;-75
2021/11/23 01:02:12;;;;;;;46.92;34.50;;;;;;;;;;5048623;28;20033;-74
2021/11/23 01:04:38;;;;;;;41.83;32.20;;;;;;;;;;5047902;28;20730;-74
2021/11/23 01:07:04;;;;;;;41.92;33.10;;;;;;;;;;5050841;28;20037;-74
2021/11/23 01:09:30;;;;;;;39.50;30.35;;;;;;;;;;5051743;28;20716;-75
2021/11/23 01:11:56;;;;;;;38.50;28.55;;;;;;;;;;5036550;28;20029;-74
2021/11/23 01:14:22;;;;;;;39.13;31.70;;;;;;;;;;5032679;28;20039;-74
2021/11/23 01:16:49;;;;;;;37.53;28.45;;;;;;;;;;5054282;28;20417;-74
2021/11/23 01:19:18;;;;;;;41.00;30.42;;;;;;;;;;5052020;28;20037;-74
2021/11/23 01:21:45;;;;;;;41.60;31.02;;;;;;;;;;5042787;28;20082;-74
2021/11/23 01:24:12;;;;;;;37.85;27.08;;;;;;;;;;5043786;28;20033;-74
2021/11/23 01:26:38;;;;;;;37.83;27.10;;;;;;;;;;5040741;28;20115;-74
2021/11/23 01:29:05;;;;;;;33.83;24.80;;;;;;;;;;5040906;28;20037;-74
2021/11/23 01:31:31;;;;;;;38.60;29.88;;;;;;;;;;5043797;28;20048;-74
2021/11/23 01:33:57;;;;;;;36.33;27.33;;;;;;;;;;5032260;28;20793;-74
2021/11/23 01:36:23;;;;;;;36.13;28.23;;;;;;;;;;5031895;28;20041;-74
2021/11/23 01:38:49;;;;;;;37.58;27.92;;;;;;;;;;5038355;28;20033;-74
2021/11/23 01:41:15;;;;;;;36.17;26.75;;;;;;;;;;5041833;28;20132;-74
2021/11/23 01:43:41;;;;;;;46.30;31.45;;;;;;;;;;5031571;28;20029;-74
2021/11/23 01:46:09;;;;;;;39.17;29.73;;;;;;;;;;5032408;28;20041;-75
2021/11/23 01:48:35;;;;;;;39.63;30.85;;;;;;;;;;5043372;28;20074;-74
2021/11/23 01:51:01;;;;;;;43.97;30.50;;;;;;;;;;5034618;28;20037;-74
2021/11/23 01:53:27;;;;;;;46.22;33.25;;;;;;;;;;5031865;28;20040;-74
2021/11/23 01:55:53;;;;;;;40.72;31.45;;;;;;;;;;5031752;28;20533;-74
2021/11/23 01:58:19;;;;;;;42.70;31.00;;;;;;;;;;5051242;28;20029;-74
2021/11/23 02:00:45;;;;;;;40.72;31.63;;;;;;;;;;5037456;28;20743;-74
2021/11/23 02:03:12;;;;;;;41.50;32.20;;;;;;;;;;5031499;28;20039;-74
2021/11/23 02:05:38;;;;;;;43.15;32.80;;;;;;;;;;5031404;28;20034;-74
2021/11/23 02:08:05;;;;;;;43.72;34.55;;;;;;;;;;5032364;28;20137;-75
2021/11/23 02:10:31;;;;;;;44.92;34.10;;;;;;;;;;5031604;28;20033;-74
2021/11/23 02:12:57;;;;;;;47.35;33.72;;;;;;;;;;5030902;28;20391;-74
2021/11/23 02:15:23;;;;;;;42.35;32.45;;;;;;;;;;5051084;28;20031;-74
2021/11/23 02:17:50;;;;;;;41.55;31.98;;;;;;;;;;5039428;28;20041;-74
2021/11/23 02:20:20;;;;;;;42.20;34.47;;;;;;;;;;5033397;28;20030;-75
2021/11/23 02:22:47;;;;;;;42.00;33.13;;;;;;;;;;5050258;28;20037;-74
2021/11/23 02:25:14;;;;;;;42.40;30.65;;;;;;;;;;5051332;28;20498;-74
2021/11/23 02:27:40;;;;;;;38.60;27.38;;;;;;;;;;5044280;28;20037;-74
2021/11/23 02:30:08;;;;;;;37.03;29.08;;;;;;;;;;5031221;28;20041;-74
2021/11/23 02:32:38;;;;;;;36.47;29.48;;;;;;;;;;5030633;28;20486;-74
2021/11/23 02:35:05;;;;;;;45.45;32.97;;;;;;;;;;5031570;28;20378;-74
2021/11/23 02:37:31;;;;;;;37.28;28.85;;;;;;;;;;5032785;28;20040;-75
2021/11/23 02:39:57;;;;;;;38.40;29.20;;;;;;;;;;5031546;28;20034;-75
2021/11/23 02:42:23;;;;;;;38.30;29.10;;;;;;;;;;5031160;28;20929;-75
2021/11/23 02:44:49;;;;;;;34.90;27.60;;;;;;;;;;5031309;28;20792;-74
2021/11/23 02:47:15;;;;;;;40.20;30.10;;;;;;;;;;5030826;28;20034;-74
2021/11/23 02:49:41;;;;;;;40.35;28.75;;;;;;;;;;5044287;28;20028;-74
2021/11/23 02:52:10;;;;;;;39.03;29.10;;;;;;;;;;5051113;28;20033;-74
2021/11/23 02:54:37;;;;;;;50.17;35.38;;;;;;;;;;5035760;28;20029;-74
2021/11/23 02:57:03;;;;;;;39.88;28.90;;;;;;;;;;5030948;28;20037;-74
2021/11/23 02:59:29;;;;;;;40.35;30.02;;;;;;;;;;5030414;28;20100;-74
2021/11/23 03:01:55;;;;;;;36.80;27.73;;;;;;;;;;5029899;28;20525;-74
2021/11/23 03:04:21;;;;;;;42.90;31.25;;;;;;;;;;5039585;28;20394;-74
2021/11/23 03:06:48;;;;;;;43.08;29.38;;;;;;;;;;5050616;28;20041;-74
2021/11/23 03:09:14;;;;;;;42.83;31.30;;;;;;;;;;5043119;28;20471;-74
2021/11/23 03:11:40;;;;;;;44.35;32.25;;;;;;;;;;5030931;28;20057;-74
2021/11/23 03:14:06;;;;;;;36.85;27.67;;;;;;;;;;5029987;28;20104;-74
2021/11/23 03:16:32;;;;;;;37.42;29.38;;;;;;;;;;5030070;28;20030;-74
2021/11/23 03:18:58;;;;;;;36.83;27.65;;;;;;;;;;5029777;28;20039;-74
2021/11/23 03:21:24;;;;;;;36.72;27.25;;;;;;;;;;5032806;28;20128;-74
2021/11/23 03:23:50;;;;;;;33.72;23.77;;;;;;;;;;5041566;28;20739;-74
2021/11/23 03:26:16;;;;;;;33.22;24.75;;;;;;;;;;5033095;28;20048;-75
2021/11/23 03:28:42;;;;;;;30.80;23.45;;;;;;;;;;5040921;28;20115;-74
2021/11/23 03:31:08;;;;;;;30.17;20.17;;;;;;;;;;5031907;28;20075;-74
2021/11/23 03:33:34;;;;;;;32.72;23.08;;;;;;;;;;5029746;28;20104;-74
2021/11/23 03:36:01;;;;;;;34.03;26.13;;;;;;;;;;5029184;28;20037;-74
2021/11/23 03:38:28;;;;;;;33.95;24.25;;;;;;;;;;5010469;28;20032;-74
2021/11/23 03:40:54;;;;;;;30.23;23.13;;;;;;;;;;5016359;28;20486;-74
2021/11/23 03:43:20;;;;;;;33.08;24.77;;;;;;;;;;5030212;28;20025;-74
2021/11/23 03:45:46;;;;;;;31.00;24.85;;;;;;;;;;5028985;28;20052;-74
2021/11/23 03:48:12;;;;;;;28.45;22.45;;;;;;;;;;5029812;28;20729;-74
2021/11/23 03:50:39;;;;;;;30.73;23.38;;;;;;;;;;5030262;28;20061;-74
2021/11/23 03:53:05;;;;;;;29.45;21.60;;;;;;;;;;5049810;28;20716;-74
2021/11/23 03:55:34;;;;;;;32.60;22.45;;;;;;;;;;5036855;28;20067;-74
2021/11/23 03:58:01;;;;;;;30.15;21.63;;;;;;;;;;5037443;28;20029;-75
2021/11/23 04:00:27;;;;;;;28.65;21.85;;;;;;;;;;5033313;28;20723;-74
2021/11/23 04:02:54;;;;;;;26.35;20.48;;;;;;;;;;5032251;28;20155;-74
2021/11/23 04:05:20;;;;;;;31.05;22.23;;;;;;;;;;5029284;28;20078;-74
2021/11/23 04:07:46;;;;;;;30.83;22.88;;;;;;;;;;5028704;28;20057;-74
2021/11/23 04:10:13;;;;;;;31.52;21.00;;;;;;;;;;5029874;28;20037;-74
2021/11/23 04:12:40;;;;;;;30.00;21.33;;;;;;;;;;5029120;28;20017;-74
2021/11/23 04:15:07;;;;;;;25.13;18.05;;;;;;;;;;5029917;28;20502;-74
2021/11/23 04:17:33;;;;;;;28.75;20.38;;;;;;;;;;5039018;28;20154;-74
2021/11/23 04:19:59;;;;;;;32.45;22.48;;;;;;;;;;5029589;28;20037;-74
2021/11/23 04:22:25;;;;;;;35.92;23.58;;;;;;;;;;5028849;28;20159;-74
2021/11/23 04:24:51;;;;;;;30.30;21.45;;;;;;;;;;5029032;28;20504;-74
2021/11/23 04:27:17;;;;;;;31.50;19.15;;;;;;;;;;5028819;28;20029;-74
2021/11/23 04:29:43;;;;;;;27.88;21.98;;;;;;;;;;5028837;28;20104;-74
2021/11/23 04:32:09;;;;;;;35.80;23.23;;;;;;;;;;5029323;28;20053;-74
2021/11/23 04:34:35;;;;;;;30.75;22.70;;;;;;;;;;5028643;28;20890;-74
2021/11/23 04:37:01;;;;;;;32.47;24.70;;;;;;;;;;5029432;28;20096;-75
2021/11/23 04:39:27;;;;;;;29.85;22.17;;;;;;;;;;5029397;28;20859;-74
2021/11/23 04:41:53;;;;;;;30.55;24.02;;;;;;;;;;5048972;28;20739;-74
2021/11/23 04:44:19;;;;;;;31.33;24.10;;;;;;;;;;5037585;28;20036;-74
2021/11/23 04:46:45;;;;;;;27.65;20.63;;;;;;;;;;5028466;28;20030;-74
2021/11/23 04:49:11;;;;;;;29.88;21.80;;;;;;;;;;5028804;28;20036;-74
2021/11/23 04:51:37;;;;;;;35.53;25.92;;;;;;;;;;5027899;28;20033;-75
2021/11/23 04:54:03;;;;;;;30.42;22.60;;;;;;;;;;5038444;28;20037;-75
2021/11/23 04:56:29;;;;;;;30.73;23.05;;;;;;;;;;5028245;28;20033;-74
2021/11/23 04:58:55;;;;;;;31.92;23.00;;;;;;;;;;5027691;28;20053;-74
2021/11/23 05:01:22;;;;;;;30.17;23.98;;;;;;;;;;5028469;28;20037;-74
2021/11/23 05:03:48;;;;;;;27.52;21.08;;;;;;;;;;5028090;28;20113;-74
2021/11/23 05:06:14;;;;;;;28.83;20.70;;;;;;;;;;5028601;28;20033;-74
2021/11/23 05:08:40;;;;;;;30.38;21.90;;;;;;;;;;5028661;28;20033;-74
2021/11/23 05:11:08;;;;;;;28.20;20.65;;;;;;;;;;5028775;28;20052;-75
2021/11/23 05:13:35;;;;;;;30.65;21.73;;;;;;;;;;5027326;28;20021;-74
2021/11/23 05:16:01;;;;;;;30.73;21.70;;;;;;;;;;5037006;28;20383;-74
2021/11/23 05:18:26;;;;;;;27.73;21.50;;;;;;;;;;5015530;28;20024;-75
2021/11/23 05:20:53;;;;;;;30.48;21.23;;;;;;;;;;5028667;28;20510;-74
2021/11/23 05:23:19;;;;;;;27.60;20.13;;;;;;;;;;5028243;28;20029;-74
2021/11/23 05:25:45;;;;;;;26.10;18.75;;;;;;;;;;5028278;28;20037;-75
2021/11/23 05:28:11;;;;;;;27.33;19.63;;;;;;;;;;5046437;28;20067;-74
2021/11/23 05:30:37;;;;;;;31.95;23.05;;;;;;;;;;5031426;28;20061;-74
2021/11/23 05:33:03;;;;;;;32.30;23.98;;;;;;;;;;5028463;28;20033;-74
2021/11/23 05:35:29;;;;;;;38.00;25.33;;;;;;;;;;5027146;28;20033;-74
2021/11/23 05:37:55;;;;;;;31.80;23.65;;;;;;;;;;5043745;28;20150;-74
2021/11/23 05:40:22;;;;;;;29.40;22.08;;;;;;;;;;5047578;28;20040;-75
2021/11/23 05:42:48;;;;;;;35.25;26.55;;;;;;;;;;5048315;28;20025;-74
2021/11/23 05:45:14;;;;;;;32.10;24.13;;;;;;;;;;5042386;28;20159;-74
2021/11/23 05:47:41;;;;;;;38.80;26.85;;;;;;;;;;5047992;28;20040;-75
2021/11/23 05:50:08;;;;;;;38.05;26.45;;;;;;;;;;5042728;28;20085;-75
2021/11/23 05:52:34;;;;;;;30.95;24.20;;;;;;;;;;5029360;28;20383;-74
2021/11/23 05:55:00;;;;;;;35.00;23.02;;;;;;;;;;5039014;28;20040;-74
2021/11/23 05:57:26;;;;;;;32.38;23.85;;;;;;;;;;5051868;28;20032;-74
2021/11/23 05:59:52;;;;;;;30.90;22.58;;;;;;;;;;5045791;28;20053;-74
2021/11/23 06:02:18;;;;;;;34.20;23.10;;;;;;;;;;5031498;28;20495;-74
2021/11/23 06:04:44;;;;;;;31.42;23.63;;;;;;;;;;5031442;28;20068;-74
2021/11/23 06:07:10;;;;;;;29.02;21.67;;;;;;;;;;5045724;28;20470;-74
2021/11/23 06:09:36;;;;;;;31.10;23.77;;;;;;;;;;5051328;28;20032;-74
2021/11/23 06:12:03;;;;;;;36.88;25.10;;;;;;;;;;5039090;28;20475;-74
2021/11/23 06:14:30;;;;;;;31.38;23.30;;;;;;;;;;5029929;28;20037;-74
2021/11/23 06:16:56;;;;;;;33.67;24.27;;;;;;;;;;5034686;28;20036;-75
2021/11/23 06:19:23;;;;;;;34.58;24.52;;;;;;;;;;5035571;28;20029;-74
2021/11/23 06:21:49;;;;;;;33.33;24.70;;;;;;;;;;5035595;28;20043;-74
2021/11/23 06:24:15;;;;;;;32.65;23.58;;;;;;;;;;5044346;28;20040;-74
2021/11/23 06:26:41;;;;;;;35.17;23.98;;;;;;;;;;5031914;28;20033;-74
2021/11/23 06:29:07;;;;;;;34.72;24.90;;;;;;;;;;5029558;28;20033;-75
2021/11/23 06:31:34;;;;;;;32.88;24.48;;;;;;;;;;5032303;28;20625;-75
2021/11/23 06:34:00;;;;;;;29.98;21.80;;;;;;;;;;5034624;28;20033;-74
2021/11/23 06:36:27;;;;;;;26.83;20.45;;;;;;;;;;5031061;28;20033;-75
2021/11/23 06:38:53;;;;;;;30.20;22.63;;;;;;;;;;5045539;28;20033;-75
2021/11/23 06:41:19;;;;;;;31.80;23.05;;;;;;;;;;5040108;28;20519;-74
2021/11/23 06:43:46;;;;;;;32.03;23.88;;;;;;;;;;5032568;28;20029;-74
2021/11/23 06:46:12;;;;;;;29.73;23.45;;;;;;;;;;5038478;28;20033;-74
2021/11/23 06:48:38;;;;;;;32.80;24.88;;;;;;;;;;5032009;28;20036;-74
2021/11/23 06:51:04;;;;;;;35.53;24.52;;;;;;;;;;5030615;28;20076;-74
2021/11/23 06:53:30;;;;;;;35.42;24.67;;;;;;;;;;5030086;28;20025;-74
2021/11/23 06:55:56;;;;;;;35.40;24.23;;;;;;;;;;5040159;28;20033;-74
2021/11/23 06:58:22;;;;;;;35.55;25.45;;;;;;;;;;5039007;28;20044;-74
2021/11/23 07:00:48;;;;;;;36.85;26.33;;;;;;;;;;5029723;28;20052;-74
2021/11/23 07:03:15;;;;;;;37.40;25.02;;;;;;;;;;5031785;28;20038;-74
2021/11/23 07:05:41;;;;;;;36.78;25.38;;;;;;;;;;5029300;28;20083;-75
2021/11/23 07:08:07;;;;;;;34.85;25.55;;;;;;;;;;5030531;28;20064;-74
2021/11/23 07:10:33;;;;;;;33.55;24.25;;;;;;;;;;5031001;28;20501;-74
2021/11/23 07:13:02;;;;;;;37.88;26.73;;;;;;;;;;5038950;28;20025;-74
2021/11/23 07:15:28;;;;;;;42.63;28.73;;;;;;;;;;5033966;28;20060;-74
2021/11/23 07:17:54;;;;;;;39.78;27.02;;;;;;;;;;5033405;28;20025;-74
2021/11/23 07:20:20;;;;;;;38.13;28.27;;;;;;;;;;5029502;28;20098;-74
2021/11/23 07:22:46;;;;;;;38.55;25.50;;;;;;;;;;5030073;28;20569;-74
2021/11/23 07:25:12;;;;;;;34.15;23.67;;;;;;;;;;5039278;28;20049;-74
2021/11/23 07:27:38;;;;;;;36.10;25.63;;;;;;;;;;5041673;28;20033;-74
2021/11/23 07:30:05;;;;;;;39.58;26.48;;;;;;;;;;5030050;28;20029;-74
2021/11/23 07:32:31;;;;;;;37.20;26.50;;;;;;;;;;5043054;28;20034;-74
2021/11/23 07:34:57;;;;;;;37.85;27.30;;;;;;;;;;5030798;28;20535;-74
2021/11/23 07:37:26;;;;;;;35.67;23.75;;;;;;;;;;5031722;28;20057;-74
2021/11/23 07:39:52;;;;;;;34.65;23.98;;;;;;;;;;5030371;28;20036;-74
2021/11/23 07:42:18;;;;;;;32.83;23.52;;;;;;;;;;5029581;28;20228;-74
2021/11/23 07:44:44;;;;;;;31.15;23.33;;;;;;;;;;5030574;28;20393;-74
2021/11/23 07:47:10;;;;;;;30.30;22.20;;;;;;;;;;5029535;28;20124;-74
2021/11/23 07:49:36;;;;;;;30.35;21.73;;;;;;;;;;5029662;28;21052;-74
2021/11/23 07:52:02;;;;;;;32.15;23.33;;;;;;;;;;5037398;28;20070;-74
2021/11/23 07:54:28;;;;;;;31.00;21.00;;;;;;;;;;5037662;28;20025;-74
2021/11/23 07:56:54;;;;;;;28.40;20.50;;;;;;;;;;5030028;28;20022;-74
2021/11/23 07:59:20;;;;;;;29.90;21.42;;;;;;;;;;5044905;28;20552;-75
2021/11/23 08:01:46;;;;;;;29.15;21.35;;;;;;;;;;5034336;28;20540;-74
2021/11/23 08:04:12;;;;;;;32.80;23.38;;;;;;;;;;5032493;28;20029;-75
2021/11/23 08:06:38;;;;;;;30.10;20.50;;;;;;;;;;5030125;28;20037;-74
2021/11/23 08:09:05;;;;;;;31.65;21.98;;;;;;;;;;5029911;28;20521;-74
2021/11/23 08:11:31;;;;;;;31.45;21.90;;;;;;;;;;5035703;28;20060;-74
2021/11/23 08:13:57;;;;;;;28.10;20.00;;;;;;;;;;5037538;28;20052;-74
2021/11/23 08:16:23;;;;;;;27.08;20.05;;;;;;;;;;5039789;28;20076;-74
2021/11/23 08:18:50;;;;;;;27.38;19.55;;;;;;;;;;5043041;28;20037;-74
2021/11/23 08:21:16;;;;;;;23.13;17.42;;;;;;;;;;5029055;28;20029;-74
2021/11/23 08:23:42;;;;;;;20.65;15.68;;;;;;;;;;5033618;28;20537;-74
2021/11/23 08:26:08;;;;;;;23.45;15.43;;;;;;;;;;5029257;28;20112;-75
2021/11/23 08:28:37;;;;;;;23.95;15.75;;;;;;;;;;5037359;28;20100;-74
2021/11/23 08:31:03;;;;;;;23.33;17.05;;;;;;;;;;5030530;28;20034;-74
2021/11/23 08:33:29;;;;;;;22.13;16.90;;;;;;;;;;5032869;28;20892;-74
2021/11/23 08:35:55;;;;;;;22.80;15.82;;;;;;;;;;5040188;28;20033;-74
2021/11/23 08:38:21;;;;;;;23.20;16.95;;;;;;;;;;5040284;28;20945;-74
2021/11/23 08:40:47;;;;;;;23.73;17.88;;;;;;;;;;5034802;28;20033;-74
2021/11/23 08:43:13;;;;;;;28.23;19.23;;;;;;;;;;5038996;28;20074;-74
2021/11/23 08:45:41;;;;;;;30.65;20.83;;;;;;;;;;5031599;28;20138;-74
2021/11/23 08:48:07;;;;;;;29.05;19.95;;;;;;;;;;5037342;28;20507;-74
2021/11/23 08:50:33;;;;;;;27.70;18.38;;;;;;;;;;5040598;28;20451;-74
2021/11/23 08:53:00;;;;;;;27.70;18.35;;;;;;;;;;5048604;28;20066;-74
2021/11/23 08:55:26;;;;;;;25.65;16.88;;;;;;;;;;5028827;28;20045;-74
2021/11/23 08:57:54;;;;;;;28.10;18.70;;;;;;;;;;5035504;28;20128;-75
2021/11/23 09:00:21;;;;;;;25.42;17.92;;;;;;;;;;5036768;28;20556;-74
2021/11/23 09:02:49;;;;;;;26.00;18.83;;;;;;;;;;5036869;28;20036;-75
2021/11/23 09:05:16;;;;;;;24.67;17.50;;;;;;;;;;5038527;28;20787;-74
2021/11/23 09:07:42;;;;;;;23.65;16.17;;;;;;;;;;5037856;28;20036;-74
2021/11/23 09:10:12;;;;;;;30.77;19.45;;;;;;;;;;5028902;28;20037;-75
2021/11/23 09:12:38;;;;;;;23.92;18.23;;;;;;;;;;5028793;28;20028;-75
2021/11/23 09:15:05;;;;;;;25.83;20.60;;;;;;;;;;5029045;28;20034;-74
2021/11/23 09:17:31;;;;;;;29.05;20.05;;;;;;;;;;5032165;28;20032;-75
2021/11/23 09:19:57;;;;;;;28.00;19.15;;;;;;;;;;5040811;28;20080;-74
2021/11/23 09:22:23;;;;;;;27.02;19.05;;;;;;;;;;5037227;28;20398;-74
2021/11/23 09:24:49;;;;;;;30.05;19.05;;;;;;;;;;5028423;28;20042;-74
2021/11/23 09:27:15;;;;;;;24.58;18.65;;;;;;;;;;5034275;28;20554;-75
2021/11/23 09:29:41;;;;;;;25.23;18.33;;;;;;;;;;5037501;28;20044;-74
2021/11/23 09:32:08;;;;;;;24.70;18.52;;;;;;;;;;5043123;28;20406;-75
2021/11/23 09:34:34;;;;;;;27.70;18.98;;;;;;;;;;5039720;28;20048;-75
2021/11/23 09:37:00;;;;;;;29.63;18.45;;;;;;;;;;5033160;28;20037;-74
2021/11/23 09:39:26;;;;;;;26.38;17.75;;;;;;;;;;5034007;28;20040;-75
2021/11/23 09:41:53;;;;;;;25.58;18.70;;;;;;;;;;5039405;28;20044;-74
2021/11/23 09:44:19;;;;;;;26.80;19.13;;;;;;;;;;5045568;28;20084;-74
2021/11/23 09:46:45;;;;;;;24.85;18.30;;;;;;;;;;5041374;28;20037;-74
2021/11/23 09:49:11;;;;;;;25.40;18.00;;;;;;;;;;5039434;28;20060;-75
2021/11/23 09:51:38;;;;;;;24.80;18.13;;;;;;;;;;5036385;28;20094;-74
2021/11/23 09:54:08;;;;;;;26.67;16.85;;;;;;;;;;5035296;28;20038;-74
2021/11/23 09:56:35;;;;;;;30.50;19.02;;;;;;;;;;5043280;28;20049;-74
2021/11/23 09:59:01;;;;;;;26.48;18.00;;;;;;;;;;5037373;28;20060;-74
2021/11/23 10:01:31;;;;;;;29.25;18.50;;;;;;;;;;5038443;28;20033;-74
2021/11/23 10:03:58;;;;;;;28.48;18.67;;;;;;;;;;5028519;28;20524;-74
2021/11/23 10:06:26;;;;;;;30.50;20.40;;;;;;;;;;5031807;28;20479;-74
2021/11/23 10:08:53;;;;;;;30.58;19.42;;;;;;;;;;5031973;28;20041;-75
2021/11/23 10:11:24;;;;;;;34.65;21.77;;;;;;;;;;5031512;28;20088;-74
2021/11/23 10:13:51;;;;;;;29.33;20.17;;;;;;;;;;5036545;28;20037;-74
2021/11/23 10:16:19;;;;;;;30.27;21.33;;;;;;;;;;5031400;28;20029;-74
2021/11/23 10:18:45;;;;;;;26.23;19.45;;;;;;;;;;5031870;28;20029;-74
2021/11/23 10:21:12;;;;;;;27.70;21.67;;;;;;;;;;5031779;28;20030;-75
2021/11/23 10:23:42;;;;;;;29.73;21.17;;;;;;;;;;5051664;28;20033;-75
2021/11/23 10:26:22;;;;;;;24.30;18.90;;;;;;;;;;5044818;28;20079;-74
2021/11/23 10:28:48;;;;;;;26.85;19.85;;;;;;;;;;5033776;28;20079;-75
2021/11/23 10:31:15;;;;;;;24.52;16.77;;;;;;;;;;5030644;28;20038;-75
2021/11/23 10:33:42;;;;;;;19.38;14.63;;;;;;;;;;5032233;28;20025;-75
2021/11/23 10:36:10;;;;;;;20.92;14.57;;;;;;;;;;5031797;28;20029;-75
2021/11/23 10:38:36;;;;;;;21.90;15.13;;;;;;;;;;5042874;28;20036;-75
2021/11/23 10:41:09;;;;;;;18.15;13.57;;;;;;;;;;5033894;28;20077;-75
2021/11/23 10:43:38;;;;;;;24.27;15.68;;;;;;;;;;5024271;28;20136;-74
2021/11/23 10:46:05;;;;;;;18.42;13.85;;;;;;;;;;5031305;28;20036;-74
2021/11/23 10:48:31;;;;;;;16.73;12.95;;;;;;;;;;5031401;28;20037;-74
2021/11/23 10:50:59;;;;;;;18.20;13.90;;;;;;;;;;5030958;28;20478;-74
2021/11/23 10:53:25;;;;;;;18.23;13.63;;;;;;;;;;5045142;28;20829;-74
2021/11/23 10:55:51;;;;;;;17.00;13.20;;;;;;;;;;5036061;28;20125;-75
2021/11/23 10:58:18;;;;;;;17.88;12.52;;;;;;;;;;5032630;28;20614;-75
2021/11/23 11:00:44;;;;;;;18.75;13.13;;;;;;;;;;5036629;28;20128;-75
2021/11/23 11:03:12;;;;;;;17.55;13.93;;;;;;;;;;5031320;28;20048;-74
2021/11/23 11:05:41;;;;;;;19.85;14.45;;;;;;;;;;5043999;28;20032;-74
2021/11/23 11:08:08;;;;;;;20.40;14.50;;;;;;;;;;5042042;28;20029;-74
2021/11/23 11:10:35;;;;;;;16.95;13.48;;;;;;;;;;5037801;28;20053;-74
2021/11/23 11:13:02;;;;;;;18.67;15.23;;;;;;;;;;5030018;28;20040;-74
2021/11/23 11:15:52;;;;;;;18.63;14.75;;;;;;;;;;5028426;28;20048;-74
2021/11/23 11:18:20;;;;;;;20.77;14.43;;;;;;;;;;5024286;28;20120;-75
2021/11/23 11:21:05;;;;;;;17.58;14.07;;;;;;;;;;5030004;28;20079;-74
2021/11/23 11:23:33;;;;;;;18.02;14.13;;;;;;;;;;5031296;28;20029;-74
2021/11/23 11:26:45;;;;;;;17.38;12.90;;;;;;;;;;5031575;28;20076;-74
2021/11/23 11:29:04;;;;;;;18.15;14.63;;;;;;;;;;5028440;28;20073;-75
2021/11/23 11:31:30;;;;;;;15.80;12.57;;;;;;;;;;5030257;28;20067;-74
2021/11/23 11:34:14;;;;;;;19.70;12.98;;;;;;;;;;5030392;28;20029;-74
2021/11/23 11:36:41;;;;;;;17.63;12.52;;;;;;;;;;5030173;28;20038;-74
2021/11/23 11:39:07;;;;;;;19.25;13.35;;;;;;;;;;5030887;28;20114;-75
2021/11/23 11:41:35;;;;;;;17.75;13.45;;;;;;;;;;5030238;28;20060;-75
2021/11/23 11:44:09;;;;;;;19.40;13.88;;;;;;;;;;5029949;28;20672;-75
2021/11/23 11:46:36;;;;;;;19.20;13.50;;;;;;;;;;5038237;28;20036;-75
2021/11/23 11:49:02;;;;;;;17.20;13.80;;;;;;;;;;5039086;28;20485;-74
2021/11/23 11:51:33;;;;;;;20.60;13.45;;;;;;;;;;5038738;28;20048;-74
2021/11/23 11:54:01;;;;;;;16.20;12.18;;;;;;;;;;5038417;28;20036;-74
2021/11/23 11:56:39;;;;;;;18.10;13.88;;;;;;;;;;5041985;28;20033;-74
2021/11/23 11:59:26;;;;;;;16.00;12.38;;;;;;;;;;5028744;28;20053;-74
2021/11/23 12:01:59;;;;;;;19.08;12.05;;;;;;;;;;5017500;28;20033;-74
2021/11/23 12:04:27;;;;;;;15.93;12.05;;;;;;;;;;5038459;28;20029;-74
2021/11/23 12:06:56;;;;;;;15.20;11.20;;;;;;;;;;5031788;28;20065;-74
2021/11/23 12:09:31;;;;;;;17.70;13.10;;;;;;;;;;5029876;28;20080;-74
2021/11/23 12:12:10;;;;;;;14.32;11.77;;;;;;;;;;5029192;28;20117;-74
2021/11/23 12:14:38;;;;;;;17.52;12.85;;;;;;;;;;5027243;28;20059;-74
2021/11/23 12:17:14;;;;;;;16.40;11.50;;;;;;;;;;5032658;28;20658;-75
2021/11/23 12:19:54;;;;;;;17.02;13.02;;;;;;;;;;5023876;28;20037;-74
2021/11/23 12:22:21;;;;;;;19.05;12.68;;;;;;;;;;5009332;28;20037;-74
2021/11/23 12:24:47;;;;;;;16.58;13.65;;;;;;;;;;5028593;28;20079;-74
2021/11/23 12:27:15;;;;;;;17.95;11.82;;;;;;;;;;5029373;28;20033;-75
2021/11/23 12:29:41;;;;;;;14.77;11.43;;;;;;;;;;5034674;28;20036;-74
2021/11/23 12:32:08;;;;;;;16.38;12.68;;;;;;;;;;5034724;28;20056;-74
2021/11/23 12:34:34;;;;;;;16.58;12.25;;;;;;;;;;5028362;28;20047;-74
2021/11/23 12:37:00;;;;;;;13.80;11.45;;;;;;;;;;5037294;28;20064;-74
2021/11/23 12:39:37;;;;;;;15.95;10.38;;;;;;;;;;5031202;28;20083;-74
2021/11/23 12:42:05;;;;;;;18.80;11.00;;;;;;;;;;5029492;28;20137;-74
2021/11/23 12:44:34;;;;;;;13.88;11.25;;;;;;;;;;5030723;28;20112;-75
2021/11/23 12:47:06;;;;;;;18.33;12.57;;;;;;;;;;5029615;28;20034;-74
2021/11/23 12:49:33;;;;;;;16.92;13.38;;;;;;;;;;5020781;28;20037;-74
2021/11/23 12:52:01;;;;;;;16.10;12.10;;;;;;;;;;5028901;28;20022;-74
2021/11/23 12:54:29;;;;;;;19.38;12.88;;;;;;;;;;5036878;28;20112;-74
2021/11/23 12:57:14;;;;;;;14.63;11.90;;;;;;;;;;5028807;28;20026;-74
2021/11/23 12:59:41;;;;;;;18.77;12.57;;;;;;;;;;5026889;28;20103;-75
2021/11/23 13:02:26;;;;;;;17.65;11.65;;;;;;;;;;5035464;28;20032;-74
2021/11/23 13:04:52;;;;;;;14.50;11.05;;;;;;;;;;5037879;28;20047;-74
2021/11/23 13:07:19;;;;;;;14.98;11.57;;;;;;;;;;5042835;28;20413;-74
2021/11/23 13:09:44;;;;;;;17.38;11.77;;;;;;;;;;5047577;28;20111;-74
2021/11/23 13:12:11;;;;;;;15.77;11.55;;;;;;;;;;5037072;28;20071;-75
2021/11/23 13:14:49;;;;;;;14.48;10.55;;;;;;;;;;5035419;28;20387;-74
2021/11/23 13:17:15;;;;;;;17.50;11.63;;;;;;;;;;5024618;28;20088;-74
2021/11/23 13:19:51;;;;;;;14.95;11.38;;;;;;;;;;5039693;28;20116;-74
2021/11/23 13:22:17;;;;;;;13.82;10.85;;;;;;;;;;5042136;28;20042;-74
2021/11/23 13:24:43;;;;;;;15.40;11.52;;;;;;;;;;5043086;28;20048;-75
2021/11/23 13:27:09;;;;;;;17.92;12.23;;;;;;;;;;5042670;28;20037;-75
2021/11/23 13:29:36;;;;;;;15.98;10.80;;;;;;;;;;5047047;28;20040;-75
2021/11/23 13:32:02;;;;;;;16.00;11.82;;;;;;;;;;5033443;28;20025;-75
2021/11/23 13:34:28;;;;;;;16.17;12.25;;;;;;;;;;5033876;28;20053;-74
2021/11/23 13:36:56;;;;;;;14.80;11.10;;;;;;;;;;5043066;28;20112;-74
2021/11/23 13:39:26;;;;;;;21.05;13.02;;;;;;;;;;5034893;28;20143;-74
2021/11/23 13:41:53;;;;;;;13.73;11.25;;;;;;;;;;5033026;28;20550;-74
2021/11/23 13:44:26;;;;;;;18.23;10.63;;;;;;;;;;5031950;28;20528;-74
2021/11/23 13:46:55;;;;;;;14.98;11.18;;;;;;;;;;5047840;28;20106;-74
2021/11/23 13:49:26;;;;;;;14.68;11.65;;;;;;;;;;5030692;28;20037;-75
2021/11/23 13:52:10;;;;;;;18.15;12.23;;;;;;;;;;5040289;28;20029;-74
2021/11/23 13:54:40;;;;;;;14.27;11.20;;;;;;;;;;5023037;28;20033;-75
2021/11/23 13:57:08;;;;;;;16.25;11.82;;;;;;;;;;5031840;28;20025;-74
2021/11/23 13:59:34;;;;;;;16.05;12.27;;;;;;;;;;5031205;28;20061;-74
2021/11/23 14:02:01;;;;;;;14.82;10.93;;;;;;;;;;5032294;28;20037;-75
2021/11/23 14:04:28;;;;;;;17.67;12.48;;;;;;;;;;5029384;28;20073;-74
2021/11/23 14:07:04;;;;;;;16.55;11.00;;;;;;;;;;5036123;28;20025;-74
2021/11/23 14:09:50;;;;;;;15.07;11.85;;;;;;;;;;5027317;28;20430;-75
2021/11/23 14:12:21;;;;;;;13.63;9.95;;;;;;;;;;5013827;28;20033;-74
2021/11/23 14:15:02;;;;;;;17.50;11.13;;;;;;;;;;5030679;28;20037;-74
2021/11/23 14:17:47;;;;;;;16.67;10.98;;;;;;;;;;5031341;28;20033;-74